Time;durP1;ratioP1;P1;durP2;ratioP2;P2;SDS_P1;SDS_P2;PMS_P1;PMS_P2;Temp;Humidity;BMP_temperature;BMP_pressure;BME280_temperature;BME280_humidity;BME280_pressure;Samples;Min_cycle;Max_cycle;Signal;HPM_P1;HPM_P2
2021/07/20 00:00:11;;;;;;;9.50;5.68;;;;;;;;;;5092338;28;20383;-62
2021/07/20 00:02:38;;;;;;;10.55;6.20;;;;;;;;;;5081323;28;20028;-62
2021/07/20 00:05:06;;;;;;;7.15;5.68;;;;;;;;;;5091353;28;20081;-62
2021/07/20 00:07:32;;;;;;;8.75;5.18;;;;;;;;;;5077986;28;20032;-64
2021/07/20 00:09:57;;;;;;;9.30;5.28;;;;;;;;;;5093134;28;20034;-62
2021/07/20 00:12:22;;;;;;;7.60;5.30;;;;;;;;;;5093974;28;20034;-63
2021/07/20 00:14:48;;;;;;;9.05;5.90;;;;;;;;;;5091297;28;20406;-62
2021/07/20 00:17:13;;;;;;;8.55;6.05;;;;;;;;;;5092186;28;20016;-62
2021/07/20 00:19:38;;;;;;;7.63;5.07;;;;;;;;;;5092835;28;20027;-62
2021/07/20 00:22:03;;;;;;;6.93;5.32;;;;;;;;;;5093642;28;20507;-64
2021/07/20 00:24:29;;;;;;;8.45;6.00;;;;;;;;;;5090942;28;20471;-64
2021/07/20 00:26:54;;;;;;;6.65;5.22;;;;;;;;;;5093279;28;20024;-63
2021/07/20 00:29:19;;;;;;;8.20;5.38;;;;;;;;;;5092216;28;20020;-62
2021/07/20 00:31:44;;;;;;;6.60;5.22;;;;;;;;;;5093757;28;20016;-62
2021/07/20 00:34:10;;;;;;;5.55;4.65;;;;;;;;;;5090646;28;20418;-63
2021/07/20 00:36:35;;;;;;;7.45;5.18;;;;;;;;;;5093134;28;20384;-62
2021/07/20 00:39:00;;;;;;;7.82;5.32;;;;;;;;;;5084201;28;20336;-63
2021/07/20 00:41:25;;;;;;;7.70;5.15;;;;;;;;;;5090315;28;20149;-63
2021/07/20 00:43:51;;;;;;;7.60;5.20;;;;;;;;;;5090835;28;20395;-63
2021/07/20 00:46:16;;;;;;;9.55;5.93;;;;;;;;;;5093495;28;20035;-63
2021/07/20 00:48:41;;;;;;;11.00;5.82;;;;;;;;;;5092827;28;20069;-62
2021/07/20 00:51:06;;;;;;;9.40;6.15;;;;;;;;;;5097063;28;20375;-63
2021/07/20 00:53:32;;;;;;;8.52;6.80;;;;;;;;;;5082433;28;20582;-63
2021/07/20 00:55:57;;;;;;;9.45;6.80;;;;;;;;;;5093078;28;20024;-63
2021/07/20 00:58:22;;;;;;;8.93;6.65;;;;;;;;;;5093313;28;20024;-63
2021/07/20 01:00:51;;;;;;;10.13;6.63;;;;;;;;;;5089036;28;20277;-63
2021/07/20 01:03:17;;;;;;;6.93;5.72;;;;;;;;;;5090242;28;20509;-63
2021/07/20 01:05:42;;;;;;;9.55;6.55;;;;;;;;;;5093521;28;20096;-63
2021/07/20 01:08:07;;;;;;;11.18;6.82;;;;;;;;;;5092986;28;20491;-63
2021/07/20 01:10:34;;;;;;;10.80;6.65;;;;;;;;;;5090569;28;20030;-63
2021/07/20 01:12:59;;;;;;;10.07;6.00;;;;;;;;;;5092005;28;20412;-63
2021/07/20 01:15:25;;;;;;;9.07;6.05;;;;;;;;;;5090538;28;20471;-63
2021/07/20 01:17:52;;;;;;;7.35;6.38;;;;;;;;;;5092828;28;20024;-63
2021/07/20 01:20:19;;;;;;;10.02;6.15;;;;;;;;;;5091058;28;20028;-64
2021/07/20 01:22:50;;;;;;;8.05;6.60;;;;;;;;;;5092790;28;20480;-64
2021/07/20 01:25:15;;;;;;;7.07;6.05;;;;;;;;;;5089286;28;20487;-64
2021/07/20 01:27:45;;;;;;;7.45;6.13;;;;;;;;;;5092235;28;20028;-63
2021/07/20 01:30:11;;;;;;;8.95;6.28;;;;;;;;;;5090198;28;20027;-63
2021/07/20 01:32:36;;;;;;;8.70;6.47;;;;;;;;;;5091534;28;20027;-63
2021/07/20 01:35:02;;;;;;;9.23;6.00;;;;;;;;;;5089671;28;20016;-63
2021/07/20 01:37:28;;;;;;;10.90;6.78;;;;;;;;;;5089589;28;20020;-62
2021/07/20 01:39:54;;;;;;;7.22;6.35;;;;;;;;;;5090478;28;20028;-63
2021/07/20 01:42:19;;;;;;;7.55;6.30;;;;;;;;;;5092250;28;20055;-62
2021/07/20 01:44:45;;;;;;;9.68;7.13;;;;;;;;;;5089915;28;20073;-62
2021/07/20 01:47:11;;;;;;;9.82;6.80;;;;;;;;;;5092283;28;20073;-62
2021/07/20 01:49:38;;;;;;;6.68;5.93;;;;;;;;;;5091465;28;20028;-62
2021/07/20 01:52:04;;;;;;;8.98;6.32;;;;;;;;;;5109481;28;20497;-62
2021/07/20 01:54:29;;;;;;;8.15;6.03;;;;;;;;;;5092633;28;20024;-63
2021/07/20 01:56:54;;;;;;;7.13;5.75;;;;;;;;;;5092298;28;20063;-63
2021/07/20 01:59:19;;;;;;;8.93;6.15;;;;;;;;;;5091626;28;20019;-63
2021/07/20 02:01:57;;;;;;;7.50;5.25;;;;;;;;;;5091444;28;20104;-63
2021/07/20 02:10:12;;;;;;;8.57;5.80;;;;;;;;;;5068586;28;20539;-63
2021/07/20 02:12:41;;;;;;;11.05;5.35;;;;;;;;;;5069071;28;20044;-62
2021/07/20 02:15:07;;;;;;;6.53;5.25;;;;;;;;;;5065450;28;20111;-63
2021/07/20 02:17:33;;;;;;;5.65;4.93;;;;;;;;;;5069860;28;20437;-63
2021/07/20 02:20:01;;;;;;;8.50;4.70;;;;;;;;;;5069142;28;20036;-63
2021/07/20 02:22:26;;;;;;;7.88;5.25;;;;;;;;;;5069201;28;20055;-62
2021/07/20 02:24:52;;;;;;;5.95;5.10;;;;;;;;;;5049086;28;20503;-63
2021/07/20 02:27:20;;;;;;;5.78;4.75;;;;;;;;;;5068886;28;20058;-63
2021/07/20 02:29:45;;;;;;;9.25;4.88;;;;;;;;;;5068682;28;20033;-62
2021/07/20 02:32:11;;;;;;;7.15;4.55;;;;;;;;;;5068611;28;20020;-62
2021/07/20 02:34:37;;;;;;;8.95;5.78;;;;;;;;;;5066579;28;20024;-62
2021/07/20 02:37:02;;;;;;;10.20;5.50;;;;;;;;;;5068850;28;20051;-63
2021/07/20 02:39:28;;;;;;;9.63;5.60;;;;;;;;;;5071792;28;20048;-62
2021/07/20 02:41:54;;;;;;;5.70;4.97;;;;;;;;;;5090657;28;20495;-64
2021/07/20 02:44:20;;;;;;;6.95;5.18;;;;;;;;;;5088569;28;20020;-63
2021/07/20 02:46:45;;;;;;;5.68;4.78;;;;;;;;;;5091692;28;20263;-63
2021/07/20 02:49:11;;;;;;;8.05;5.50;;;;;;;;;;5091129;28;20062;-61
2021/07/20 02:51:37;;;;;;;9.27;4.35;;;;;;;;;;5091151;28;20383;-63
2021/07/20 02:54:03;;;;;;;7.72;5.05;;;;;;;;;;5088400;28;20040;-62
2021/07/20 02:56:29;;;;;;;6.15;4.65;;;;;;;;;;5091456;28;20024;-62
2021/07/20 02:58:56;;;;;;;7.47;4.32;;;;;;;;;;5091097;28;20490;-63
2021/07/20 03:01:22;;;;;;;8.55;5.10;;;;;;;;;;5091527;28;20024;-63
2021/07/20 03:03:47;;;;;;;8.35;5.35;;;;;;;;;;5088517;28;20482;-63
2021/07/20 03:06:13;;;;;;;7.65;5.10;;;;;;;;;;5091565;28;20035;-63
2021/07/20 03:08:39;;;;;;;6.57;4.40;;;;;;;;;;5091825;28;20379;-63
2021/07/20 03:11:06;;;;;;;6.88;5.25;;;;;;;;;;5090871;28;20027;-63
2021/07/20 03:13:34;;;;;;;7.85;5.10;;;;;;;;;;5088198;28;20016;-63
2021/07/20 03:16:01;;;;;;;7.95;4.93;;;;;;;;;;5093407;28;20474;-63
2021/07/20 03:18:28;;;;;;;6.78;5.05;;;;;;;;;;5095146;28;20020;-63
2021/07/20 03:20:54;;;;;;;7.53;4.55;;;;;;;;;;5094542;28;20020;-63
2021/07/20 03:23:21;;;;;;;9.07;5.15;;;;;;;;;;5091835;28;20511;-63
2021/07/20 03:25:47;;;;;;;5.40;4.22;;;;;;;;;;5089594;28;20024;-62
2021/07/20 03:28:13;;;;;;;5.95;5.35;;;;;;;;;;5094285;28;20016;-62
2021/07/20 03:30:38;;;;;;;5.68;4.25;;;;;;;;;;5094414;28;20054;-63
2021/07/20 03:33:04;;;;;;;7.72;5.10;;;;;;;;;;5093610;28;20025;-62
2021/07/20 03:35:30;;;;;;;5.53;4.90;;;;;;;;;;5092997;28;20027;-62
2021/07/20 03:37:56;;;;;;;8.35;5.72;;;;;;;;;;5094072;28;20069;-64
2021/07/20 03:40:21;;;;;;;7.75;4.63;;;;;;;;;;5094366;28;20028;-63
2021/07/20 03:42:46;;;;;;;6.63;4.85;;;;;;;;;;5094539;28;20043;-64
2021/07/20 03:45:12;;;;;;;8.98;5.40;;;;;;;;;;5091166;28;20031;-63
2021/07/20 03:47:41;;;;;;;5.85;4.70;;;;;;;;;;5094162;28;20077;-63
2021/07/20 03:50:06;;;;;;;7.78;4.95;;;;;;;;;;5092671;28;20012;-63
2021/07/20 03:52:33;;;;;;;6.05;4.40;;;;;;;;;;5082670;28;20071;-63
2021/07/20 03:54:58;;;;;;;8.40;5.10;;;;;;;;;;5087166;28;20420;-63
2021/07/20 03:57:24;;;;;;;7.57;5.38;;;;;;;;;;5094585;28;20031;-63
2021/07/20 03:59:50;;;;;;;7.43;5.47;;;;;;;;;;5093610;28;20024;-63
2021/07/20 04:02:18;;;;;;;6.57;5.07;;;;;;;;;;5093082;28;20020;-63
2021/07/20 04:04:45;;;;;;;9.10;5.45;;;;;;;;;;5091016;28;20089;-63
2021/07/20 04:07:17;;;;;;;6.18;4.82;;;;;;;;;;5094178;28;20107;-63
2021/07/20 04:09:45;;;;;;;7.80;5.38;;;;;;;;;;5093831;28;20109;-63
2021/07/20 04:12:10;;;;;;;6.97;5.43;;;;;;;;;;5093656;28;20047;-63
2021/07/20 04:14:36;;;;;;;5.90;4.85;;;;;;;;;;5090719;28;20109;-63
2021/07/20 04:17:02;;;;;;;7.10;4.57;;;;;;;;;;5092550;28;20024;-63
2021/07/20 04:19:27;;;;;;;7.53;5.25;;;;;;;;;;5093873;28;20016;-64
2021/07/20 04:21:53;;;;;;;7.28;5.07;;;;;;;;;;5093783;28;20451;-65
2021/07/20 04:24:18;;;;;;;9.30;5.57;;;;;;;;;;5089852;28;20438;-62
2021/07/20 04:26:44;;;;;;;8.02;5.50;;;;;;;;;;5092743;28;20024;-62
2021/07/20 04:29:10;;;;;;;8.60;5.63;;;;;;;;;;5089912;28;20024;-65
2021/07/20 04:31:38;;;;;;;8.63;5.60;;;;;;;;;;5093285;28;20046;-63
2021/07/20 04:34:03;;;;;;;7.88;5.47;;;;;;;;;;5090356;28;20464;-63
2021/07/20 04:36:29;;;;;;;8.18;5.25;;;;;;;;;;5093423;28;20016;-63
2021/07/20 04:38:55;;;;;;;5.68;5.03;;;;;;;;;;5092996;28;20035;-63
2021/07/20 04:41:21;;;;;;;7.07;5.60;;;;;;;;;;5092570;28;20012;-63
2021/07/20 04:43:47;;;;;;;7.07;4.85;;;;;;;;;;5090370;28;20478;-63
2021/07/20 04:46:13;;;;;;;7.85;4.95;;;;;;;;;;5092724;28;20016;-62
2021/07/20 04:48:39;;;;;;;6.70;5.10;;;;;;;;;;5092925;28;22002;-63
2021/07/20 04:51:04;;;;;;;8.15;5.47;;;;;;;;;;5098427;28;20522;-62
2021/07/20 04:53:30;;;;;;;9.15;5.60;;;;;;;;;;5090318;28;20222;-63
2021/07/20 04:55:56;;;;;;;7.13;5.55;;;;;;;;;;5092365;28;20517;-62
2021/07/20 04:58:21;;;;;;;9.75;4.93;;;;;;;;;;5092485;28;20020;-64
2021/07/20 05:00:50;;;;;;;9.75;5.63;;;;;;;;;;5091464;28;20040;-63
2021/07/20 05:03:17;;;;;;;11.85;5.38;;;;;;;;;;5070348;28;20252;-63
2021/07/20 05:05:42;;;;;;;8.07;5.20;;;;;;;;;;5088542;28;20020;-63
2021/07/20 05:08:09;;;;;;;7.40;5.18;;;;;;;;;;5092096;28;20027;-64
2021/07/20 05:10:35;;;;;;;8.27;5.90;;;;;;;;;;5092267;28;20028;-63
2021/07/20 05:13:00;;;;;;;9.18;6.25;;;;;;;;;;5090694;28;20153;-63
2021/07/20 05:15:26;;;;;;;10.82;5.72;;;;;;;;;;5089800;28;20027;-62
2021/07/20 05:17:51;;;;;;;7.45;5.70;;;;;;;;;;5093012;28;20027;-63
2021/07/20 05:20:17;;;;;;;8.30;6.03;;;;;;;;;;5092378;28;20425;-62
2021/07/20 05:22:43;;;;;;;9.68;5.88;;;;;;;;;;5092742;28;20037;-62
2021/07/20 05:25:09;;;;;;;8.88;6.25;;;;;;;;;;5086045;28;20020;-63
2021/07/20 05:27:35;;;;;;;8.07;6.03;;;;;;;;;;5085220;28;20031;-62
2021/07/20 05:30:00;;;;;;;8.88;6.57;;;;;;;;;;5086915;28;20281;-62
2021/07/20 05:32:26;;;;;;;9.02;6.28;;;;;;;;;;5091739;28;20433;-63
2021/07/20 05:34:52;;;;;;;9.48;6.55;;;;;;;;;;5086123;28;20020;-60
2021/07/20 05:37:20;;;;;;;10.30;7.00;;;;;;;;;;5074397;28;20020;-61
2021/07/20 05:39:49;;;;;;;13.25;7.25;;;;;;;;;;5090337;28;20161;-62
2021/07/20 05:42:18;;;;;;;9.13;6.30;;;;;;;;;;5080463;28;20032;-62
2021/07/20 05:44:44;;;;;;;8.10;6.50;;;;;;;;;;5083970;28;20007;-63
2021/07/20 05:47:09;;;;;;;8.50;6.20;;;;;;;;;;5072363;28;20073;-64
2021/07/20 05:49:35;;;;;;;8.70;6.35;;;;;;;;;;5091067;28;20451;-61
2021/07/20 05:52:01;;;;;;;9.35;6.55;;;;;;;;;;5091686;28;20027;-61
2021/07/20 05:54:26;;;;;;;11.27;5.68;;;;;;;;;;5089163;28;20027;-62
2021/07/20 05:56:52;;;;;;;11.98;6.60;;;;;;;;;;5088253;28;20029;-62
2021/07/20 05:59:18;;;;;;;9.50;6.10;;;;;;;;;;5089417;28;20020;-61
2021/07/20 06:01:44;;;;;;;9.45;6.78;;;;;;;;;;5085566;28;20479;-61
2021/07/20 06:04:10;;;;;;;9.55;6.78;;;;;;;;;;5088329;28;20020;-61
2021/07/20 06:06:35;;;;;;;11.88;6.70;;;;;;;;;;5089531;28;20020;-62
2021/07/20 06:09:02;;;;;;;10.80;7.05;;;;;;;;;;5090924;28;20055;-63
2021/07/20 06:11:27;;;;;;;11.00;6.75;;;;;;;;;;5074516;28;20025;-63
2021/07/20 06:13:53;;;;;;;10.65;7.35;;;;;;;;;;5088116;28;20409;-63
2021/07/20 06:16:22;;;;;;;11.93;6.95;;;;;;;;;;5091471;28;20030;-62
2021/07/20 06:18:48;;;;;;;10.85;6.53;;;;;;;;;;5084075;28;20037;-62
2021/07/20 06:21:13;;;;;;;11.80;7.20;;;;;;;;;;5090486;28;20233;-62
2021/07/20 06:23:43;;;;;;;8.73;6.32;;;;;;;;;;5087673;28;20012;-63
2021/07/20 06:26:09;;;;;;;11.00;6.05;;;;;;;;;;5090624;28;20017;-62
2021/07/20 06:28:35;;;;;;;9.30;6.00;;;;;;;;;;5079633;28;20028;-62
2021/07/20 06:31:01;;;;;;;9.85;6.30;;;;;;;;;;5095639;28;20020;-63
2021/07/20 06:33:27;;;;;;;8.80;6.43;;;;;;;;;;5086754;28;20352;-63
2021/07/20 06:35:52;;;;;;;8.32;6.05;;;;;;;;;;5090413;28;20012;-63
2021/07/20 06:38:19;;;;;;;7.65;6.47;;;;;;;;;;5093426;28;20019;-62
2021/07/20 06:40:47;;;;;;;10.88;7.15;;;;;;;;;;5091080;28;20540;-62
2021/07/20 06:43:14;;;;;;;12.57;6.53;;;;;;;;;;5087973;28;20028;-62
2021/07/20 06:45:41;;;;;;;10.48;6.63;;;;;;;;;;5090682;28;20371;-62
2021/07/20 06:48:07;;;;;;;10.38;6.68;;;;;;;;;;5093768;28;20065;-62
2021/07/20 06:50:32;;;;;;;10.18;7.45;;;;;;;;;;5095150;28;20075;-62
2021/07/20 06:52:58;;;;;;;9.75;6.82;;;;;;;;;;5093950;28;20032;-61
2021/07/20 06:55:25;;;;;;;10.45;6.70;;;;;;;;;;5092833;28;20051;-62
2021/07/20 06:57:51;;;;;;;9.13;6.25;;;;;;;;;;5103827;28;20542;-62
2021/07/20 07:00:18;;;;;;;11.07;6.57;;;;;;;;;;5094380;28;20055;-61
2021/07/20 07:02:44;;;;;;;10.35;6.28;;;;;;;;;;5090095;28;20016;-62
2021/07/20 07:05:12;;;;;;;11.23;6.35;;;;;;;;;;5091996;28;20030;-62
2021/07/20 07:07:37;;;;;;;10.40;6.72;;;;;;;;;;5092793;28;20035;-62
2021/07/20 07:10:03;;;;;;;9.38;6.18;;;;;;;;;;5098362;28;20024;-62
2021/07/20 07:12:31;;;;;;;9.45;6.43;;;;;;;;;;5093117;28;20081;-62
2021/07/20 07:14:57;;;;;;;9.02;6.15;;;;;;;;;;5093681;27;20028;-62
2021/07/20 07:17:22;;;;;;;13.82;5.97;;;;;;;;;;5094110;28;20016;-62
2021/07/20 07:19:49;;;;;;;11.02;6.47;;;;;;;;;;5084296;28;20017;-62
2021/07/20 07:22:17;;;;;;;8.32;6.18;;;;;;;;;;5085264;28;20012;-62
2021/07/20 07:24:42;;;;;;;10.43;6.20;;;;;;;;;;5087799;28;20028;-62
2021/07/20 07:27:08;;;;;;;10.13;6.10;;;;;;;;;;5085425;28;20024;-62
2021/07/20 07:29:34;;;;;;;10.82;6.20;;;;;;;;;;5087071;28;20146;-62
2021/07/20 07:31:59;;;;;;;8.77;6.03;;;;;;;;;;5085680;28;20379;-62
2021/07/20 07:34:24;;;;;;;9.93;6.18;;;;;;;;;;5092027;28;20026;-62
2021/07/20 07:36:51;;;;;;;9.40;6.65;;;;;;;;;;5094488;28;20172;-62
2021/07/20 07:39:19;;;;;;;7.85;5.60;;;;;;;;;;5083816;28;20024;-62
2021/07/20 07:41:45;;;;;;;10.23;6.63;;;;;;;;;;5084526;28;20035;-62
2021/07/20 07:44:12;;;;;;;12.60;7.07;;;;;;;;;;5091176;28;20039;-62
2021/07/20 07:46:41;;;;;;;9.43;6.40;;;;;;;;;;5087603;28;20046;-62
2021/07/20 07:49:09;;;;;;;9.85;6.53;;;;;;;;;;5090968;28;20046;-62
2021/07/20 07:51:35;;;;;;;9.52;6.28;;;;;;;;;;5086270;28;20031;-62
2021/07/20 07:54:02;;;;;;;9.38;6.38;;;;;;;;;;5078246;28;20399;-62
2021/07/20 07:56:30;;;;;;;7.50;5.32;;;;;;;;;;5092403;28;20103;-62
2021/07/20 07:58:57;;;;;;;10.15;6.90;;;;;;;;;;5091087;28;20509;-62
2021/07/20 08:01:23;;;;;;;10.90;6.60;;;;;;;;;;5092923;28;20031;-62
2021/07/20 08:03:49;;;;;;;9.23;6.05;;;;;;;;;;5090682;28;20067;-62
2021/07/20 08:06:20;;;;;;;9.40;5.90;;;;;;;;;;5093192;28;20367;-62
2021/07/20 08:08:45;;;;;;;12.35;6.30;;;;;;;;;;5092657;28;20778;-62
2021/07/20 08:11:12;;;;;;;10.48;5.90;;;;;;;;;;5093572;28;20107;-62
2021/07/20 08:13:38;;;;;;;8.70;6.40;;;;;;;;;;5090172;28;20101;-62
2021/07/20 08:16:05;;;;;;;9.57;5.90;;;;;;;;;;5093487;28;20431;-61
2021/07/20 08:18:30;;;;;;;12.68;5.65;;;;;;;;;;5093365;28;20063;-62
2021/07/20 08:21:03;;;;;;;9.05;6.60;;;;;;;;;;5093540;28;20016;-63
2021/07/20 08:23:29;;;;;;;7.63;5.45;;;;;;;;;;5090563;28;20107;-61
2021/07/20 08:25:57;;;;;;;8.38;5.45;;;;;;;;;;5093098;28;20510;-62
2021/07/20 08:28:41;;;;;;;9.23;6.30;;;;;;;;;;5086216;28;20084;-61
2021/07/20 08:31:07;;;;;;;9.85;6.25;;;;;;;;;;5089616;28;20127;-62
2021/07/20 08:33:33;;;;;;;9.57;5.80;;;;;;;;;;5089998;28;20059;-62
2021/07/20 08:36:02;;;;;;;7.10;5.38;;;;;;;;;;5090772;28;20093;-61
2021/07/20 08:38:29;;;;;;;8.38;5.32;;;;;;;;;;5092362;28;20471;-62
2021/07/20 08:40:57;;;;;;;7.60;5.45;;;;;;;;;;5100890;28;20103;-62
2021/07/20 08:43:32;;;;;;;7.97;5.03;;;;;;;;;;5100631;28;20032;-62
2021/07/20 08:45:57;;;;;;;8.63;5.32;;;;;;;;;;5092206;28;20023;-62
2021/07/20 08:48:25;;;;;;;7.13;5.60;;;;;;;;;;5094298;28;20028;-62
2021/07/20 08:50:53;;;;;;;9.20;6.18;;;;;;;;;;5090375;28;20394;-62
2021/07/20 08:53:39;;;;;;;9.45;5.68;;;;;;;;;;5092606;28;20040;-62
2021/07/20 08:56:04;;;;;;;7.43;5.57;;;;;;;;;;5090619;28;20418;-62
2021/07/20 08:58:43;;;;;;;7.90;5.38;;;;;;;;;;5092187;28;20430;-62
2021/07/20 09:01:14;;;;;;;11.15;5.32;;;;;;;;;;5072468;28;20028;-62
2021/07/20 09:03:43;;;;;;;7.53;5.93;;;;;;;;;;5078181;28;20016;-63
2021/07/20 09:06:08;;;;;;;9.18;5.28;;;;;;;;;;5092714;28;20015;-62
2021/07/20 09:08:33;;;;;;;9.53;6.27;;;;;;;;;;5091815;28;20044;-62
2021/07/20 09:11:19;;;;;;;8.43;5.90;;;;;;;;;;5088271;28;20317;-62
2021/07/20 09:13:44;;;;;;;;;;;;;;;;;;5089348;28;20274;-62
2021/07/20 09:16:10;;;;;;;7.13;5.75;;;;;;;;;;5099366;28;19908;-62
2021/07/20 09:18:45;;;;;;;10.82;6.00;;;;;;;;;;5087310;28;20035;-62
2021/07/20 09:21:11;;;;;;;7.80;5.65;;;;;;;;;;5092124;28;20016;-62
2021/07/20 09:23:50;;;;;;;9.73;5.60;;;;;;;;;;5089777;28;20096;-61
2021/07/20 09:26:19;;;;;;;8.20;5.55;;;;;;;;;;5091923;28;20052;-63
2021/07/20 09:28:52;;;;;;;8.52;5.93;;;;;;;;;;5084320;28;20028;-61
2021/07/20 09:31:26;;;;;;;10.20;6.00;;;;;;;;;;5091954;28;20073;-63
2021/07/20 09:33:57;;;;;;;10.50;6.30;;;;;;;;;;5089272;28;20016;-63
2021/07/20 09:36:28;;;;;;;8.70;5.32;;;;;;;;;;5092933;28;20129;-64
2021/07/20 09:38:56;;;;;;;8.43;5.47;;;;;;;;;;5092584;28;20027;-63
2021/07/20 09:41:21;;;;;;;10.43;5.53;;;;;;;;;;5092195;28;20395;-62
2021/07/20 09:43:49;;;;;;;16.87;7.13;;;;;;;;;;5088923;28;20032;-62
2021/07/20 09:46:35;;;;;;;10.02;5.90;;;;;;;;;;5092011;28;20266;-62
2021/07/20 09:49:16;;;;;;;8.65;5.95;;;;;;;;;;5091973;28;20035;-62
2021/07/20 09:52:00;;;;;;;9.23;6.40;;;;;;;;;;5092331;28;20023;-64
2021/07/20 09:54:44;;;;;;;9.52;5.75;;;;;;;;;;5089618;28;20031;-61
2021/07/20 09:57:16;;;;;;;9.77;5.35;;;;;;;;;;5091310;28;20054;-61
2021/07/20 09:59:47;;;;;;;8.75;6.00;;;;;;;;;;5091401;28;20028;-62
2021/07/20 10:02:31;;;;;;;8.48;5.95;;;;;;;;;;5091499;28;20046;-62
2021/07/20 10:05:12;;;;;;;7.78;6.10;;;;;;;;;;5088631;28;20028;-61
2021/07/20 10:07:37;;;;;;;6.78;5.93;;;;;;;;;;5092168;28;20375;-62
2021/07/20 10:10:05;;;;;;;10.05;5.72;;;;;;;;;;5090056;28;20032;-62
2021/07/20 10:12:51;;;;;;;11.20;6.57;;;;;;;;;;5090595;28;20366;-62
2021/07/20 10:15:19;;;;;;;7.18;6.40;;;;;;;;;;5080615;28;20063;-62
2021/07/20 10:17:49;;;;;;;9.55;6.38;;;;;;;;;;5092013;28;20048;-62
2021/07/20 10:20:20;;;;;;;8.25;7.03;;;;;;;;;;5089958;28;20024;-63
2021/07/20 10:22:51;;;;;;;11.40;7.18;;;;;;;;;;5090739;28;20448;-62
2021/07/20 10:25:25;;;;;;;9.40;6.38;;;;;;;;;;5085132;28;20032;-62
2021/07/20 10:27:53;;;;;;;8.93;7.23;;;;;;;;;;5090045;28;20020;-62
2021/07/20 10:30:19;;;;;;;8.70;6.57;;;;;;;;;;5094128;28;20016;-62
2021/07/20 10:32:47;;;;;;;8.43;6.43;;;;;;;;;;5095662;28;20431;-62
2021/07/20 10:35:38;;;;;;;8.02;5.43;;;;;;;;;;5090163;28;20041;-62
2021/07/20 10:38:07;;;;;;;8.18;5.82;;;;;;;;;;5090262;28;20118;-62
2021/07/20 10:40:33;;;;;;;6.45;5.70;;;;;;;;;;5082523;28;20065;-61
2021/07/20 10:43:00;;;;;;;10.20;6.97;;;;;;;;;;5076081;28;20051;-62
2021/07/20 10:45:27;;;;;;;7.80;6.40;;;;;;;;;;5076334;28;20062;-61
2021/07/20 10:48:02;;;;;;;10.27;7.28;;;;;;;;;;5094832;28;20049;-63
2021/07/20 10:50:28;;;;;;;8.18;4.57;;;;;;;;;;5094354;28;20024;-62
2021/07/20 10:53:11;;;;;;;11.07;6.20;;;;;;;;;;5093315;28;20085;-62
2021/07/20 10:55:42;;;;;;;10.95;5.90;;;;;;;;;;5075402;28;20250;-62
2021/07/20 10:58:07;;;;;;;8.73;5.35;;;;;;;;;;5084720;28;20013;-62
2021/07/20 11:00:42;;;;;;;9.30;5.83;;;;;;;;;;5081904;28;20437;-61
2021/07/20 11:03:26;;;;;;;7.22;5.75;;;;;;;;;;5082621;28;20345;-62
2021/07/20 11:05:52;;;;;;;5.70;5.05;;;;;;;;;;5095400;28;20438;-62
2021/07/20 11:08:18;;;;;;;6.00;3.55;;;;;;;;;;5075780;28;20115;-64
2021/07/20 11:10:43;;;;;;;6.78;5.45;;;;;;;;;;5093846;28;20028;-62
2021/07/20 11:13:27;;;;;;;6.40;5.30;;;;;;;;;;5090942;28;20386;-62
2021/07/20 11:15:54;;;;;;;11.95;5.22;;;;;;;;;;5088641;28;20266;-62
2021/07/20 11:18:22;;;;;;;9.52;4.93;;;;;;;;;;5089271;28;20016;-62
2021/07/20 11:20:49;;;;;;;7.75;5.10;;;;;;;;;;5082961;28;20028;-62
2021/07/20 11:23:18;;;;;;;8.52;5.53;;;;;;;;;;5092506;28;20032;-62
2021/07/20 11:25:44;;;;;;;6.70;5.07;;;;;;;;;;5094140;28;20058;-63
2021/07/20 11:28:10;;;;;;;8.18;5.13;;;;;;;;;;5079316;28;20052;-61
2021/07/20 11:30:37;;;;;;;6.72;4.75;;;;;;;;;;5086551;28;20063;-61
2021/07/20 11:33:05;;;;;;;4.55;3.35;;;;;;;;;;5076726;28;20103;-62
2021/07/20 11:35:40;;;;;;;6.28;4.40;;;;;;;;;;5089291;28;20047;-61
2021/07/20 11:38:05;;;;;;;;;;;;;;;;;;5087201;28;20023;-62
2021/07/20 11:40:35;;;;;;;5.68;4.20;;;;;;;;;;5108973;28;19907;-62
2021/07/20 11:43:04;;;;;;;6.82;4.22;;;;;;;;;;5082137;28;20028;-62
2021/07/20 11:45:33;;;;;;;7.55;4.78;;;;;;;;;;5084411;28;20488;-61
2021/07/20 11:48:03;;;;;;;6.03;4.65;;;;;;;;;;5090457;28;20031;-62
2021/07/20 11:50:34;;;;;;;7.90;4.40;;;;;;;;;;5090204;28;20043;-63
2021/07/20 11:53:13;;;;;;;8.90;4.75;;;;;;;;;;5090000;28;20039;-63
2021/07/20 11:55:53;;;;;;;6.32;4.43;;;;;;;;;;5086664;28;20020;-63
2021/07/20 11:58:36;;;;;;;6.22;4.22;;;;;;;;;;5093440;28;20020;-62
2021/07/20 12:01:14;;;;;;;8.23;4.15;;;;;;;;;;5088345;28;20137;-62
2021/07/20 12:03:51;;;;;;;7.40;4.13;;;;;;;;;;5076532;28;20323;-63
2021/07/20 12:06:16;;;;;;;7.68;4.55;;;;;;;;;;5086786;28;20023;-62
2021/07/20 12:08:56;;;;;;;4.77;4.23;;;;;;;;;;5081544;28;20533;-61
2021/07/20 12:11:25;;;;;;;9.27;4.63;;;;;;;;;;5078242;28;20259;-63
2021/07/20 12:13:50;;;;;;;6.35;4.28;;;;;;;;;;5079599;28;20050;-63
2021/07/20 12:16:15;;;;;;;7.35;4.57;;;;;;;;;;5079993;28;20020;-62
2021/07/20 12:18:53;;;;;;;5.72;5.07;;;;;;;;;;5079044;28;20028;-64
2021/07/20 12:21:19;;;;;;;6.70;4.85;;;;;;;;;;5083963;28;20486;-63
2021/07/20 12:23:45;;;;;;;4.45;4.05;;;;;;;;;;5089983;28;20407;-63
2021/07/20 12:26:11;;;;;;;5.82;3.22;;;;;;;;;;5092306;28;20095;-64
2021/07/20 12:28:43;;;;;;;7.75;5.07;;;;;;;;;;5086626;28;20032;-63
2021/07/20 12:31:08;;;;;;;7.15;5.20;;;;;;;;;;5089100;28;20024;-62
2021/07/20 12:33:34;;;;;;;5.30;4.50;;;;;;;;;;5090258;28;20472;-63
2021/07/20 12:35:59;;;;;;;4.97;3.67;;;;;;;;;;5093405;28;20016;-63
2021/07/20 12:38:25;;;;;;;6.63;5.35;;;;;;;;;;5093897;28;20093;-64
2021/07/20 12:40:50;;;;;;;5.60;5.10;;;;;;;;;;5092787;28;20020;-63
2021/07/20 12:43:16;;;;;;;5.28;4.75;;;;;;;;;;5090364;28;20391;-62
2021/07/20 12:45:45;;;;;;;7.20;5.63;;;;;;;;;;5093416;28;20463;-65
2021/07/20 12:48:25;;;;;;;6.13;4.88;;;;;;;;;;5089477;28;20016;-62
2021/07/20 12:50:51;;;;;;;7.03;4.85;;;;;;;;;;5090615;28;20069;-63
2021/07/20 12:53:17;;;;;;;8.57;5.05;;;;;;;;;;5087916;28;20598;-63
2021/07/20 12:55:45;;;;;;;7.63;4.43;;;;;;;;;;5074719;28;20104;-62
2021/07/20 12:58:10;;;;;;;6.80;5.32;;;;;;;;;;5080239;28;20095;-63
2021/07/20 13:00:36;;;;;;;7.78;5.35;;;;;;;;;;5088844;28;20107;-62
2021/07/20 13:03:05;;;;;;;6.07;4.80;;;;;;;;;;5083275;28;20082;-62
2021/07/20 13:05:32;;;;;;;6.10;4.47;;;;;;;;;;5086429;28;20044;-62
2021/07/20 13:07:58;;;;;;;8.18;4.90;;;;;;;;;;5093221;28;20437;-63
2021/07/20 13:10:24;;;;;;;5.38;4.60;;;;;;;;;;5084369;28;20047;-63
2021/07/20 13:12:49;;;;;;;5.55;5.00;;;;;;;;;;5087900;28;20058;-63
2021/07/20 13:15:17;;;;;;;6.75;5.00;;;;;;;;;;5082896;28;20500;-63
2021/07/20 13:17:42;;;;;;;5.43;4.93;;;;;;;;;;5089621;28;20020;-62
2021/07/20 13:20:08;;;;;;;6.50;4.82;;;;;;;;;;5091325;28;20028;-62
2021/07/20 13:22:38;;;;;;;6.60;4.43;;;;;;;;;;5091777;28;20028;-63
2021/07/20 13:25:07;;;;;;;6.22;5.28;;;;;;;;;;5086211;28;20027;-63
2021/07/20 13:27:52;;;;;;;5.10;4.43;;;;;;;;;;5088362;28;20028;-62
2021/07/20 13:30:19;;;;;;;4.88;4.45;;;;;;;;;;5086401;28;20034;-64
2021/07/20 13:32:45;;;;;;;6.20;4.60;;;;;;;;;;5087820;28;20085;-62
2021/07/20 13:35:11;;;;;;;6.43;4.00;;;;;;;;;;5088073;28;20028;-63
2021/07/20 13:37:36;;;;;;;7.40;4.57;;;;;;;;;;5087924;28;20012;-61
2021/07/20 13:40:04;;;;;;;6.55;4.43;;;;;;;;;;5088677;28;20030;-61
2021/07/20 13:42:29;;;;;;;7.93;4.38;;;;;;;;;;5094512;28;20359;-62
2021/07/20 13:44:56;;;;;;;5.65;4.38;;;;;;;;;;5088398;28;20439;-62
2021/07/20 13:47:23;;;;;;;5.82;4.47;;;;;;;;;;5090071;28;20443;-62
2021/07/20 13:49:52;;;;;;;6.18;4.70;;;;;;;;;;5089660;28;20023;-62
2021/07/20 13:52:18;;;;;;;5.35;4.15;;;;;;;;;;5091347;28;20537;-62
2021/07/20 13:54:44;;;;;;;5.07;3.97;;;;;;;;;;5086076;28;20085;-61
2021/07/20 13:57:09;;;;;;;7.10;4.60;;;;;;;;;;5090755;28;20095;-61
2021/07/20 13:59:35;;;;;;;6.38;4.18;;;;;;;;;;5088649;28;20016;-62
2021/07/20 14:02:01;;;;;;;4.35;3.92;;;;;;;;;;5091313;28;20028;-62
2021/07/20 14:04:27;;;;;;;6.03;3.50;;;;;;;;;;5085059;28;20023;-62
2021/07/20 14:06:52;;;;;;;5.50;4.05;;;;;;;;;;5089455;28;20077;-61
2021/07/20 14:09:18;;;;;;;6.03;4.30;;;;;;;;;;5089424;28;20037;-62
2021/07/20 14:11:44;;;;;;;4.07;3.60;;;;;;;;;;5086109;28;20304;-62
2021/07/20 14:14:09;;;;;;;5.03;3.25;;;;;;;;;;5089122;28;20012;-62
2021/07/20 14:16:35;;;;;;;3.85;3.45;;;;;;;;;;5094065;28;20046;-62
2021/07/20 14:19:01;;;;;;;4.00;3.25;;;;;;;;;;5090331;28;20047;-62
2021/07/20 14:21:26;;;;;;;5.30;3.20;;;;;;;;;;5086129;28;20044;-62
2021/07/20 14:23:53;;;;;;;5.55;3.38;;;;;;;;;;5088947;28;20031;-63
2021/07/20 14:26:18;;;;;;;3.97;3.58;;;;;;;;;;5081252;28;20362;-64
2021/07/20 14:28:44;;;;;;;6.00;3.60;;;;;;;;;;5076058;28;20472;-62
2021/07/20 14:31:09;;;;;;;4.85;3.30;;;;;;;;;;5071022;28;20016;-62
2021/07/20 14:33:35;;;;;;;4.95;3.33;;;;;;;;;;5080672;28;20418;-62
2021/07/20 14:36:02;;;;;;;5.35;4.45;;;;;;;;;;5084957;28;20017;-62
2021/07/20 14:38:34;;;;;;;3.85;3.35;;;;;;;;;;5076710;28;20024;-62
2021/07/20 14:41:06;;;;;;;4.30;3.90;;;;;;;;;;5089996;28;20069;-61
2021/07/20 14:43:36;;;;;;;5.13;3.75;;;;;;;;;;5072500;28;20024;-61
2021/07/20 14:46:09;;;;;;;4.78;3.63;;;;;;;;;;5087652;28;20028;-62
2021/07/20 14:48:34;;;;;;;4.18;3.78;;;;;;;;;;5087980;28;20055;-62